Ana Sayfa
METAR-TAF:

METAR-TAF

Havaalanları :

San José del Cabo, Meksika

Enlem: 23-09N, Boylam: 109-42W, yükseklik: 109 m

Güncel hava durumu gözlemi

Rapor saat 22:45 UTC de 1 saat ve 2 dakika önce yapıldı.
Rüzgar doğu/güneydoğudan 12 kt
Sıcaklık 23°C
Nem 57%
Basınç 1017 hPa
Görüş mesafesi: 19.3 km
5000 ft yükseklikte az bulutlu
8000 ft yükseklikte az bulutlu

METAR: MMSD 262245Z 12012KT 12SM FEW050 FEW080 23/14 A3004 RMK 8/430

Saat: 16:47 (23:47 UTC)

Tahmin

Rapor saat 16:54 UTC de 6 saat ve 53 dakika önce yapıldı.
Ayın 26'si saat 18 UTC'den ayın 27'si saat 18 UTC'ye kadar geçerli Tahmin
Rüzgar güneydoğudan 12 kt
Görüş mesafesi: 10 km
Açık gökyüzü
Ayın 27'si saat 0300 UTC'den
Rüzgar batı/kuzeybatıdan 10 kt
Görüş mesafesi: 10 km
Açık gökyüzü

TAF: MMSD 261654Z 2618/2718 14012KT P6SM SKC FM270300 30010KT P6SM SKC

4.000'den fazla havaalanı için hava durumu gözlemleri ve tahminleri (METAR ve TAF raporları).

Kullanılabilir istasyonlar harita üzerinde sarı ve kırmızı noktalarla gösterilir.

İstasyonun adını görmek için fareyi noktanın üzerinde gezdirin.

Sonrasında hava gözlem ve tahminlerini görmek için tıklayın.

Haritayı değiştirmek için: yaklaştırmak için siyah artı işaretli yeşil düğmeye ve uzaklaştırmak için de eksi işaretli düğmeye hızla tıklayın; bitişik haritalar için yeşil okları kullanın.


METAR-TAF: